Ranger Creek, WA

8:54 PM PDT on April 26, 2017 (GMT -0700)
Stampede Pass | | Change Station

Elev 3967 ft 47.28 °N, 121.33 °W | Updated 24 minutes ago

Overcast
Overcast
32 °F
Feels Like 25 °F
N
8
Wind Variable Wind from West

Today
High -- | Low -- °F
--% Chance of Precip.
Yesterday
High -- | Low -- °F
Precip. -- in
Pressure 29.81 in
Visibility 0.2 miles
Clouds Mostly Cloudy 300 ft
Mostly Cloudy 700 ft
Overcast 1300 ft
Windchill 25 °F
Dew Point 32 °F
Humidity 100%
Rainfall 0.51 in
Snow Depth Not available.
5:58 AM 8:10 PM
New Moon, 1% visible
SPECI KSMP 270330Z AUTO 28007KT 230V330 1/4SM -SN FG BKN003 BKN007 OVC013 00/00 A2981 RMK AO2 P0002 T00000000 $
Pressure 29.81 in
Visibility 0.2 miles
Clouds Mostly Cloudy 300 ft
Mostly Cloudy 700 ft
Overcast 1300 ft
Windchill 25 °F
Dew Point 32 °F
Humidity 100%
Rainfall 0.51 in
Snow Depth Not available.
5:58 AM 8:10 PM
New Moon, 1% visible
SPECI KSMP 270330Z AUTO 28007KT 230V330 1/4SM -SN FG BKN003 BKN007 OVC013 00/00 A2981 RMK AO2 P0002 T00000000 $

Get Severe Weather Alerts

Thanks for signing up!

Be on the lookout for a verification email in your inbox.

You'll start receiving the daily forecast at 8 AM.

×

10-Day Weather Forecast

Almanac

Astronomy

Apr. 26, 2017 Rise Set
Actual Time
Civil Twilight
Nautical Twilight
Astronomical Twilight
Moon
Length of Visible Light
Length of Day
Tomorrow will be .
, % of the Moon is Illuminated

Today's Extremes

State Highs State Lows

Community

WunderPhotos

WunderBlog® & News

Nearby

Air Quality

  Air Quality AQ Index Pollutant
Not available.

Snow Depth

Station Depth Elevation

Earthquake Activity

City Distance Mag. Time & Date
Minimum magnitude displayed is 2.5.

Coastal Water Temperatures

Place Temperature

Stations

Nearby Weather Stations

Station Location Temp. Windchill Dew Point Humidity Wind Precip. Elev Updated Type
                   

Watches & Warnings

There are currently no watches in effect.